CDT,Max TemperatureF,Mean TemperatureF,Min TemperatureF,Max Dew PointF,MeanDew PointF,Min DewpointF,Max Humidity, Mean Humidity, Min Humidity, Max Sea Level PressureIn, Mean Sea Level PressureIn, Min Sea Level PressureIn, Max VisibilityMiles, Mean VisibilityMiles, Min VisibilityMiles, Max Wind SpeedMPH, Mean Wind SpeedMPH, Max Gust SpeedMPH,PrecipitationIn, CloudCover, Events, WindDirDegrees
2013-5-1,83,71,59,58,53,48,78,56,33,30.10,30.04,29.95,10,10,10,20,8,27,0.00,0,,169
2013-5-2,70,58,46,56,51,43,93,76,59,30.15,30.12,30.08,10,9,4,15,7,23,0.11,6,Rain,4
2013-5-3,62,53,44,59,50,42,100,94,87,30.09,29.92,29.82,8,3,1,21,10,29,1.21,8,Rain,40
2013-5-4,64,59,54,57,54,52,93,80,67,30.03,29.94,29.85,10,9,2,15,6,22,0.17,8,Rain,150
2013-5-5,72,63,53,54,51,46,93,67,41,30.02,29.98,29.90,10,9,4,18,7,25,T,7,Rain,29
2013-5-6,77,66,55,50,45,37,83,56,29,30.02,29.98,29.94,10,10,10,18,9,27,0.00,6,,37
2013-5-7,79,65,50,47,40,33,74,47,19,30.05,30.00,29.96,10,10,10,12,4,15,0.00,0,,33
2013-5-8,81,67,52,53,48,43,89,59,28,30.04,29.99,29.96,10,10,10,10,1,15,0.00,1,,181
2013-5-9,71,66,61,63,59,43,100,83,66,29.99,29.89,29.81,10,6,1,24,7,31,0.53,7,Rain-Thunderstorm,180
2013-5-10,61,56,50,59,51,45,97,87,77,29.99,29.90,29.81,10,9,2,13,6,17,0.01,8,Rain,332
2013-5-11,61,52,43,50,38,26,93,61,29,30.12,30.01,29.93,10,10,7,24,10,36,0.00,4,,290
2013-5-12,58,48,38,34,27,23,70,49,28,30.20,30.16,30.13,10,10,10,20,7,27,0.00,0,,308
2013-5-13,69,52,35,40,35,29,85,56,26,30.21,30.13,30.01,10,10,10,15,5,20,T,0,,206
2013-5-14,88,71,53,63,53,40,72,56,39,29.98,29.81,29.69,10,10,10,22,12,30,0.00,0,,213
2013-5-15,84,73,61,59,55,49,55,45,34,29.85,29.81,29.74,10,10,10,22,8,31,0.55,0,,286
2013-5-16,84,72,60,61,56,51,90,63,36,29.94,29.88,29.83,10,9,1,17,6,22,0.25,3,Rain-Thunderstorm,175
2013-5-17,81,70,59,65,60,53,93,66,39,29.99,29.96,29.92,10,8,1,15,6,19,0.30,4,Rain,148
2013-5-18,81,72,63,64,62,60,93,72,51,30.02,29.98,29.90,10,6,1,13,6,16,0.00,4,,131
2013-5-19,88,76,64,69,66,61,93,72,50,29.91,29.82,29.70,10,8,3,23,11,31,0.00,1,,158
2013-5-20,82,73,63,67,62,59,93,70,46,29.85,29.76,29.69,10,7,0,21,15,37,1.48,5,Fog-Rain-Thunderstorm,201
2013-5-21,81,72,62,64,61,59,93,73,52,29.73,29.70,29.65,10,10,9,22,11,26,0.00,2,,212
2013-5-22,73,66,59,63,57,53,87,70,53,29.81,29.71,29.64,10,9,2,18,9,24,0.19,8,Rain,257
2013-5-23,63,56,49,56,52,45,100,80,60,30.27,30.00,29.81,10,8,1,17,8,24,0.05,7,Rain,350
2013-5-24,67,54,41,45,39,34,89,62,34,30.45,30.36,30.29,10,10,9,15,6,18,0.00,0,,71
2013-5-25,54,51,48,49,42,33,86,68,50,30.42,30.32,30.25,10,9,2,18,8,24,0.38,7,Rain-Thunderstorm,99
2013-5-26,64,58,51,58,53,46,96,87,77,30.28,30.17,30.04,10,7,1,24,10,29,1.57,8,Rain-Thunderstorm,102
2013-5-27,69,64,58,64,60,55,100,89,78,30.04,29.93,29.80,10,4,1,17,7,22,1.44,7,Rain-Thunderstorm,115
2013-5-28,77,71,64,69,65,61,93,83,73,29.92,29.80,29.73,10,9,4,28,13,36,0.35,7,Rain-Thunderstorm,208
2013-5-29,85,74,62,69,64,60,87,71,55,29.97,29.89,29.83,10,9,2,21,12,26,0.37,3,Rain-Thunderstorm,194
2013-5-30,84,74,63,69,64,58,93,76,59,29.88,29.84,29.75,10,7,1,33,16,45,1.16,5,Rain-Thunderstorm,194
2013-5-31,75,69,63,72,64,61,93,86,78,29.87,29.80,29.70,10,9,2,23,11,30,0.29,6,Rain-Thunderstorm,179